Flight Track Log - Related Links

Times and Time Zones

All times are in EDT time to prevent confusion due to time zone crossing. See the UCA4771 flight status page for this flight to view local times or setup timezone preferences in your user account.

Time Position Orientation Groundspeed Altitude Reporting Facility
EDT Latitude Longitude Course Direction KTS MPH feet Rate Location/Type
Wed 02:34:42 PM 43.1075 -76.1217 269° West 125 144 1,100  Level Boston Center
Wed 02:35:48 PM 43.1067 -76.1767 269° West 136 157 2,600 7,514 Climbing Boston Center
Wed 02:36:33 PM 43.1036 -76.2197 264° West 150 173 15,000 1,967 Climbing Boston Center
Wed 02:36:49 PM 43.1036 -76.2314 270° West 158 182 4,600 -9,097 Descending Boston Center
Wed 02:37:35 PM 43.0919 -76.2608 242° Southwest 151 174 5,600 1,770 Climbing Boston Center
Wed 02:37:50 PM 43.0811 -76.2767 227° Southwest 149 171 6,400 1,672 Climbing Boston Center
Wed 02:38:36 PM 43.0553 -76.2675 165° South 164 189 7,300 1,778 Climbing Boston Center
Wed 02:39:38 PM 43.0231 -76.1983 122° Southeast 174 200 9,600 1,415 Climbing Boston Center
Wed 02:40:39 PM 42.9939 -76.1289 120° Southeast 202 232 10,200 1,171 Climbing Boston Center
Wed 02:41:41 PM 42.9644 -76.0539 118° Southeast 225 259 12,000 1,756 Climbing Boston Center
Wed 02:42:42 PM 42.9375 -75.9869 119° Southeast 206 237 13,800 1,463 Climbing Boston Center
Wed 02:43:44 PM 42.9011 -75.9381 135° Southeast 191 220 15,000 585 Climbing Boston Center
Wed 02:44:45 PM 42.8503 -75.8900 145° Southeast 216 249 15,000  Level Boston Center
Wed 02:45:47 PM 42.7933 -75.8314 143° Southeast 249 287 15,000  Level Boston Center
Wed 02:46:48 PM 42.7300 -75.7844 151° Southeast 256 295 15,000  Level Boston Center
Wed 02:47:50 PM 42.6528 -75.7303 153° Southeast 257 296 15,000  Level Boston Center
Wed 02:48:51 PM 42.5883 -75.6842 152° Southeast 260 299 15,000 -390 Level Boston Center
Wed 02:49:53 PM 42.5256 -75.6414 153° Southeast 261 300 14,200 -927 Descending Boston Center
Wed 02:50:54 PM 42.4575 -75.5939 153° Southeast 270 311 13,100 -585 Descending Boston Center
Wed 02:51:56 PM 42.3931 -75.5461 151° Southeast 268 308 13,000 -48 Descending Boston Center
Wed 02:52:58 PM 42.3281 -75.5003 152° Southeast 266 306 13,000  Level Boston Center
Wed 02:53:59 PM 42.2653 -75.4561 152° Southeast 259 298 13,000  Level Boston Center
Wed 02:55:01 PM 42.1892 -75.4044 153° Southeast 257 296 13,000  Level Boston Center
Wed 02:56:02 PM 42.1258 -75.3606 153° Southeast 255 293 13,000  Level Boston Center
Wed 02:57:04 PM 42.0647 -75.3161 152° Southeast 253 291 13,000  Level Boston Center
Wed 02:58:05 PM 42.0292 -75.2319 120° Southeast 259 298 13,000  Level Boston Center
Wed 02:59:08 PM 41.9956 -75.1281 113° Southeast 260 299 13,000  Level Boston Center
Wed 03:00:10 PM 41.9608 -75.0425 119° Southeast 261 300 13,000 -49 Level Boston Center
Wed 03:01:11 PM 41.9308 -74.9544 115° Southeast 261 300 12,900 -537 Descending Boston Center
Wed 03:02:13 PM 41.8642 -74.9022 150° Southeast 261 300 11,900 -1,171 Descending Boston Center
Wed 03:03:14 PM 41.7978 -74.8589 154° Southeast 262 302 10,500 -1,171 Descending Boston Center
Wed 03:04:16 PM 41.7322 -74.8136 153° Southeast 266 306 9,500 -976 Descending Boston Center
Wed 03:05:17 PM 41.6656 -74.7661 152° Southeast 258 297 8,500 -927 Descending Boston Center
Wed 03:06:19 PM 41.6047 -74.7256 154° Southeast 250 288 7,600 -927 Descending Boston Center
Wed 03:07:20 PM 41.5422 -74.6831 153° Southeast 250 288 6,600 -780 Descending Boston Center
Wed 03:08:22 PM 41.4747 -74.6369 153° Southeast 251 289 6,000 -341 Descending Boston Center
Wed 03:09:23 PM 41.4133 -74.5944 153° Southeast 251 289 5,900  Descending Boston Center
Wed 03:10:21 PM 41.3500 -74.6167 195° South 234 269 6,000 51 Climbing New York TRACON
Wed 03:11:21 PM 41.2833 -74.6333 191° South 231 266 6,000  Level New York TRACON
Wed 03:12:21 PM 41.2167 -74.6333 180° South 243 280 6,000  Level New York TRACON
Wed 03:13:21 PM 41.1500 -74.6167 169° South 244 281 6,000 -50 Level New York TRACON
Wed 03:14:21 PM 41.1500 -74.5167 90° East 261 300 5,900 -500 Descending New York TRACON
Wed 03:15:21 PM 41.1500 -74.4333 90° East 254 292 5,000 -450 Descending New York TRACON
Wed 03:16:21 PM 41.1500 -74.3333 90° East 245 282 5,000  Level New York TRACON
Wed 03:17:21 PM 41.1000 -74.2667 135° Southeast 244 281 5,000 -200 Level New York TRACON
Wed 03:18:21 PM 41.0500 -74.2167 143° Southeast 250 288 4,600 -500 Descending New York TRACON
Wed 03:19:21 PM 40.9833 -74.1667 150° Southeast 246 283 4,000 -650 Descending New York TRACON
Wed 03:20:21 PM 40.9333 -74.1333 153° Southeast 237 273 3,300 -550 Descending New York TRACON
Wed 03:21:21 PM 40.8667 -74.1000 159° South 239 275 2,900 -450 Descending New York TRACON
Wed 03:22:21 PM 40.8167 -74.0833 166° South 227 261 2,400 -750 Descending New York TRACON
Wed 03:23:21 PM 40.7667 -74.1167 207° Southwest 191 220 1,400 -950 Descending New York TRACON
Wed 03:24:21 PM 40.7167 -74.1500 207° Southwest 155 178 500 -900 Descending New York TRACON
Wed 03:26:00 PM 40.6925 -74.1687 196° South  Level Estimated
Wed 03:33:00 PM 40.6925 -74.1687 196° South  Level Estimated

Login

Don't have an account? Register now (free) for customized features, flight alerts, and more!